createdAt,value
2017-07-17T00:00:31.575Z,20.43
2017-07-17T00:02:59.637Z,21.43
2017-07-17T00:05:27.715Z,23.73
2017-07-17T00:07:55.788Z,23.90
2017-07-17T00:10:24.623Z,22.77
2017-07-17T00:12:52.703Z,22.40
2017-07-17T00:15:20.763Z,25.77
2017-07-17T00:17:48.836Z,21.97
2017-07-17T00:20:16.903Z,22.20
2017-07-17T00:22:44.986Z,23.10
2017-07-17T00:25:13.068Z,23.30
2017-07-17T00:27:41.132Z,20.70
2017-07-17T00:30:09.215Z,21.60
2017-07-17T00:32:37.298Z,21.00
2017-07-17T00:35:05.381Z,21.23
2017-07-17T00:37:33.468Z,20.80
2017-07-17T00:40:01.519Z,21.43
2017-07-17T00:42:29.595Z,21.00
2017-07-17T00:44:57.668Z,21.37
2017-07-17T00:47:25.719Z,20.30
2017-07-17T00:49:53.792Z,21.93
2017-07-17T00:52:21.870Z,17.13
2017-07-17T00:54:49.961Z,20.00
2017-07-17T00:57:18.031Z,22.40
2017-07-17T00:59:46.091Z,19.70
2017-07-17T01:02:14.167Z,19.40
2017-07-17T01:04:42.247Z,18.27
2017-07-17T01:07:11.086Z,19.17
2017-07-17T01:09:39.154Z,18.03
2017-07-17T01:12:07.237Z,18.83
2017-07-17T01:14:35.304Z,16.80
2017-07-17T01:17:03.370Z,17.63
2017-07-17T01:19:31.448Z,18.83
2017-07-17T01:21:59.508Z,17.47
2017-07-17T01:24:27.591Z,17.10
2017-07-17T01:26:55.652Z,17.53
2017-07-17T01:29:23.731Z,17.63
2017-07-17T01:31:51.797Z,16.17
2017-07-17T01:34:19.871Z,16.77
2017-07-17T01:36:47.968Z,17.00
2017-07-17T01:39:16.024Z,15.87
2017-07-17T01:41:44.099Z,15.73
2017-07-17T01:44:12.169Z,16.07
2017-07-17T01:46:40.899Z,16.90
2017-07-17T01:49:08.972Z,14.87
2017-07-17T01:51:37.044Z,16.53
2017-07-17T01:54:05.104Z,17.10
2017-07-17T01:56:33.184Z,16.63
2017-07-17T01:59:01.339Z,18.17
2017-07-17T02:01:30.159Z,15.37
2017-07-17T02:03:58.220Z,16.77
2017-07-17T02:06:26.288Z,16.13
2017-07-17T02:08:54.448Z,15.73
2017-07-17T02:11:22.534Z,16.43
2017-07-17T02:13:50.598Z,15.17
2017-07-17T02:16:18.672Z,14.47
2017-07-17T02:18:46.775Z,12.83
2017-07-17T02:21:14.842Z,14.97
2017-07-17T02:23:43.424Z,13.50
2017-07-17T02:26:11.496Z,13.33
2017-07-17T02:28:39.568Z,15.20
2017-07-17T02:31:07.640Z,15.50
2017-07-17T02:33:35.720Z,16.80
2017-07-17T02:36:04.562Z,15.97
2017-07-17T02:38:32.629Z,16.63
2017-07-17T02:41:00.704Z,17.67
2017-07-17T02:43:28.768Z,15.40
2017-07-17T02:45:57.605Z,16.60
2017-07-17T02:48:25.997Z,16.00
2017-07-17T02:50:54.075Z,15.83
2017-07-17T02:53:22.196Z,15.27
2017-07-17T02:55:50.303Z,16.67
2017-07-17T02:58:18.368Z,18.10
2017-07-17T03:00:46.444Z,15.53
2017-07-17T03:03:14.523Z,17.00
2017-07-17T03:05:42.595Z,16.40
2017-07-17T03:08:10.824Z,15.60
2017-07-17T03:10:38.906Z,15.90
2017-07-17T03:13:06.970Z,14.67
2017-07-17T03:15:35.037Z,15.27
2017-07-17T03:18:03.155Z,17.40
2017-07-17T03:20:31.228Z,16.03
2017-07-17T03:22:59.295Z,14.53
2017-07-17T03:25:27.371Z,16.47
2017-07-17T03:27:55.440Z,13.20
2017-07-17T03:30:23.518Z,12.83
2017-07-17T03:32:51.584Z,11.97
2017-07-17T03:35:19.664Z,13.30
2017-07-17T03:37:48.503Z,13.37
2017-07-17T03:40:16.567Z,13.80
2017-07-17T03:42:44.652Z,12.13
2017-07-17T03:45:12.711Z,11.30
2017-07-17T03:47:40.771Z,11.10
2017-07-17T03:50:08.836Z,9.00
2017-07-17T03:52:36.892Z,10.37
2017-07-17T03:55:04.967Z,9.10
2017-07-17T03:57:33.030Z,8.80
2017-07-17T04:00:01.083Z,7.40
2017-07-17T04:02:29.152Z,7.67
2017-07-17T04:04:57.229Z,8.57
2017-07-17T04:07:25.299Z,7.40
2017-07-17T04:09:53.344Z,7.80
2017-07-17T04:12:21.415Z,7.73
2017-07-17T04:14:49.485Z,7.10
2017-07-17T04:17:17.535Z,7.87
2017-07-17T04:19:45.610Z,7.73
2017-07-17T04:22:14.455Z,7.33
2017-07-17T04:24:43.067Z,9.27
2017-07-17T04:27:11.123Z,8.17
2017-07-17T04:29:39.188Z,7.27
2017-07-17T04:32:07.263Z,8.93
2017-07-17T04:34:35.344Z,7.73
2017-07-17T04:37:03.411Z,8.07
2017-07-17T04:39:31.484Z,6.83
2017-07-17T04:41:59.547Z,6.30
2017-07-17T04:44:27.611Z,6.97
2017-07-17T04:46:55.696Z,6.23
2017-07-17T04:49:23.768Z,6.77
2017-07-17T04:51:51.886Z,6.27
2017-07-17T04:54:19.955Z,6.00
2017-07-17T04:56:47.998Z,7.10
2017-07-17T04:59:16.067Z,7.47
2017-07-17T05:01:44.153Z,7.77
2017-07-17T05:04:12.218Z,6.63
2017-07-17T05:06:40.273Z,6.60
2017-07-17T05:09:08.332Z,6.47
2017-07-17T05:11:36.404Z,6.13
2017-07-17T05:14:04.476Z,6.03
2017-07-17T05:16:32.535Z,5.70
2017-07-17T05:19:00.613Z,5.40
2017-07-17T05:21:28.668Z,7.40
2017-07-17T05:23:56.715Z,6.07
2017-07-17T05:26:30.355Z,6.00
2017-07-17T05:29:04.795Z,5.90
2017-07-17T05:31:38.332Z,6.50
2017-07-17T05:34:12.091Z,6.53
2017-07-17T05:36:46.512Z,7.37
2017-07-17T05:39:20.102Z,9.53
2017-07-17T05:41:53.747Z,13.70
2017-07-17T05:44:27.388Z,14.10
2017-07-17T05:47:00.938Z,16.73
2017-07-17T05:49:34.533Z,16.50
2017-07-17T05:52:09.089Z,17.67
2017-07-17T05:54:43.635Z,20.40
2017-07-17T05:57:17.279Z,21.10
2017-07-17T05:59:50.856Z,23.20
2017-07-17T06:02:24.508Z,20.27
2017-07-17T06:04:58.059Z,19.23
2017-07-17T06:07:31.685Z,21.37
2017-07-17T06:10:05.406Z,21.77
2017-07-17T06:12:38.959Z,19.33
2017-07-17T06:15:12.696Z,16.70
2017-07-17T06:17:47.089Z,15.70
2017-07-17T06:20:20.820Z,17.03
2017-07-17T06:22:54.555Z,17.47
2017-07-17T06:25:28.316Z,16.93
2017-07-17T06:28:02.726Z,16.30
2017-07-17T06:30:36.351Z,13.73
2017-07-17T06:33:09.962Z,14.97
2017-07-17T06:35:43.566Z,15.10
2017-07-17T06:38:17.223Z,14.97
2017-07-17T06:40:50.834Z,14.53
2017-07-17T06:43:25.370Z,12.53
2017-07-17T06:45:58.967Z,12.70
2017-07-17T06:48:35.189Z,13.27
2017-07-17T06:51:08.880Z,12.70
2017-07-17T06:53:42.629Z,12.37
2017-07-17T06:56:16.404Z,12.90
2017-07-17T06:58:45.260Z,11.80
2017-07-17T07:01:13.319Z,12.20
2017-07-17T07:03:41.421Z,12.50
2017-07-17T07:06:09.487Z,12.43
2017-07-17T07:08:37.961Z,12.97
2017-07-17T07:11:06.030Z,14.30
2017-07-17T07:13:34.104Z,13.00
2017-07-17T07:16:02.179Z,13.90
2017-07-17T07:18:30.253Z,14.00
2017-07-17T07:20:58.308Z,13.40
2017-07-17T07:23:26.396Z,13.67
2017-07-17T07:25:54.456Z,14.33
2017-07-17T07:28:22.530Z,14.67
2017-07-17T07:30:50.599Z,14.53
2017-07-17T07:33:18.680Z,13.53
2017-07-17T07:35:46.742Z,14.30
2017-07-17T07:38:14.812Z,15.07
2017-07-17T07:40:42.889Z,15.37
2017-07-17T07:43:10.968Z,14.60
2017-07-17T07:45:39.032Z,15.80
2017-07-17T07:48:07.123Z,13.77
2017-07-17T07:50:35.965Z,15.33
2017-07-17T07:53:04.073Z,13.33
2017-07-17T07:55:32.916Z,13.90
2017-07-17T07:58:01.003Z,14.33
2017-07-17T08:00:29.071Z,14.07
2017-07-17T08:02:57.145Z,14.40
2017-07-17T08:05:25.216Z,13.70
2017-07-17T08:07:53.283Z,12.80
2017-07-17T08:10:21.352Z,11.87
2017-07-17T08:12:49.427Z,13.00
2017-07-17T08:15:17.497Z,13.00
2017-07-17T08:17:46.204Z,12.03
2017-07-17T08:20:14.268Z,12.10
2017-07-17T08:22:42.362Z,13.03
2017-07-17T08:25:10.423Z,13.37
2017-07-17T08:27:38.487Z,14.57
2017-07-17T08:30:06.559Z,14.73
2017-07-17T08:32:34.638Z,15.00
2017-07-17T08:35:03.471Z,14.03
2017-07-17T08:37:31.543Z,15.33
2017-07-17T08:39:59.616Z,14.50
2017-07-17T08:42:27.699Z,14.93
2017-07-17T08:44:55.776Z,16.17
2017-07-17T08:47:23.854Z,13.20
2017-07-17T08:49:53.294Z,14.40
2017-07-17T08:52:21.326Z,13.37
2017-07-17T08:54:50.171Z,12.60
2017-07-17T08:57:18.255Z,12.37
2017-07-17T08:59:46.329Z,13.10
2017-07-17T09:02:14.416Z,9.80
2017-07-17T09:04:42.467Z,10.70
2017-07-17T09:07:10.591Z,9.83
2017-07-17T09:09:38.667Z,9.20
2017-07-17T09:12:06.733Z,9.97
2017-07-17T09:14:34.827Z,9.70
2017-07-17T09:17:02.903Z,8.83
2017-07-17T09:19:30.981Z,6.83
2017-07-17T09:21:59.069Z,8.80
2017-07-17T09:24:27.147Z,8.23
2017-07-17T09:26:55.235Z,7.80
2017-07-17T09:29:23.281Z,7.90
2017-07-17T09:31:51.367Z,8.50
2017-07-17T09:34:19.422Z,7.10
2017-07-17T09:36:47.481Z,6.80
2017-07-17T09:39:15.554Z,7.37
2017-07-17T09:41:43.613Z,7.70
2017-07-17T09:44:11.679Z,6.97
2017-07-17T09:46:39.729Z,7.03
2017-07-17T09:49:07.775Z,6.30
2017-07-17T09:51:35.907Z,6.77
2017-07-17T09:54:03.978Z,6.00
2017-07-17T09:56:32.031Z,6.87
2017-07-17T09:59:00.127Z,6.60
2017-07-17T10:01:28.199Z,7.30
2017-07-17T10:03:56.245Z,7.20
2017-07-17T10:06:24.309Z,7.13
2017-07-17T10:08:52.397Z,6.80
2017-07-17T10:11:20.461Z,7.13
2017-07-17T10:13:48.515Z,7.47
2017-07-17T10:16:16.611Z,6.60
2017-07-17T10:18:44.655Z,5.67
2017-07-17T10:21:12.731Z,5.67
2017-07-17T10:23:40.931Z,5.30
2017-07-17T10:26:08.978Z,5.40
2017-07-17T10:28:37.046Z,5.00
2017-07-17T10:31:05.120Z,4.80
2017-07-17T10:33:33.176Z,4.70
2017-07-17T10:36:01.243Z,5.10
2017-07-17T10:38:29.316Z,4.77
2017-07-17T10:40:57.390Z,4.90
2017-07-17T10:43:25.451Z,4.03
2017-07-17T10:45:53.510Z,4.30
2017-07-17T10:48:21.585Z,3.97
2017-07-17T10:50:49.640Z,4.50
2017-07-17T10:53:17.711Z,5.50
2017-07-17T10:55:45.836Z,4.13
2017-07-17T10:58:13.905Z,4.67
2017-07-17T11:00:41.958Z,4.60
2017-07-17T11:03:10.012Z,4.60
2017-07-17T11:05:38.094Z,4.70
2017-07-17T11:08:06.153Z,3.77
2017-07-17T11:10:34.223Z,3.87
2017-07-17T11:13:02.298Z,3.90
2017-07-17T11:15:30.368Z,4.17
2017-07-17T11:17:58.447Z,4.10
2017-07-17T11:20:27.280Z,4.70
2017-07-17T11:22:56.123Z,4.10
2017-07-17T11:25:24.175Z,3.90
2017-07-17T11:27:52.260Z,3.67
2017-07-17T11:30:20.327Z,3.30
2017-07-17T11:32:48.392Z,4.00
2017-07-17T11:35:16.524Z,3.70
2017-07-17T11:37:44.580Z,4.03
2017-07-17T11:40:12.653Z,4.00
2017-07-17T11:42:40.718Z,4.53
2017-07-17T11:45:08.779Z,3.70
2017-07-17T12:00:13.236Z,3.10
2017-07-17T12:02:41.317Z,4.23
2017-07-17T12:07:36.678Z,3.43
2017-07-17T12:10:05.524Z,4.47
2017-07-17T12:12:33.595Z,4.50
2017-07-17T12:15:01.675Z,4.37
2017-07-17T12:17:29.736Z,4.43
2017-07-17T12:19:57.806Z,3.70
2017-07-17T12:22:25.871Z,4.10
2017-07-17T12:24:53.931Z,3.93
2017-07-17T12:27:22.024Z,3.20
2017-07-17T12:29:50.102Z,3.73
2017-07-17T12:32:18.176Z,2.90
2017-07-17T12:34:46.243Z,3.33
2017-07-17T12:37:14.319Z,2.80
2017-07-17T12:39:42.377Z,2.47
2017-07-17T12:42:10.463Z,2.67
2017-07-17T12:44:40.138Z,3.20
2017-07-17T12:47:08.196Z,2.37
2017-07-17T12:49:36.298Z,3.10
2017-07-17T12:52:04.401Z,2.90
2017-07-17T12:54:33.224Z,2.97
2017-07-17T12:57:01.282Z,2.40
2017-07-17T12:59:29.330Z,2.47
2017-07-17T13:01:59.043Z,2.50
2017-07-17T13:04:27.126Z,2.33
2017-07-17T13:06:55.310Z,2.13
2017-07-17T13:09:23.415Z,2.87
2017-07-17T13:11:51.470Z,2.37
2017-07-17T13:14:19.544Z,2.10
2017-07-17T13:16:47.623Z,2.50
2017-07-17T13:19:15.697Z,2.63
2017-07-17T13:21:43.752Z,2.40
2017-07-17T13:24:11.829Z,2.03
2017-07-17T13:26:39.888Z,2.10
2017-07-17T13:29:07.958Z,2.37
2017-07-17T13:31:36.028Z,2.63
2017-07-17T13:34:04.103Z,2.40
2017-07-17T13:36:32.159Z,2.00
2017-07-17T13:39:00.267Z,2.07
2017-07-17T13:41:28.328Z,2.00
2017-07-17T13:43:56.396Z,1.90
2017-07-17T13:46:24.466Z,2.20
2017-07-17T13:48:52.529Z,2.00
2017-07-17T13:51:20.594Z,1.40
2017-07-17T13:53:48.645Z,2.03
2017-07-17T13:56:17.472Z,1.73
2017-07-17T13:58:45.549Z,2.10
2017-07-17T14:01:13.603Z,2.27
2017-07-17T14:03:41.666Z,1.70
2017-07-17T14:06:09.744Z,2.57
2017-07-17T14:08:37.810Z,2.20
2017-07-17T14:11:05.903Z,2.07
2017-07-17T14:13:33.958Z,2.27
2017-07-17T14:16:02.044Z,1.90
2017-07-17T14:18:31.433Z,1.83
2017-07-17T14:20:59.505Z,1.90
2017-07-17T14:23:27.592Z,1.70
2017-07-17T14:25:55.664Z,1.80
2017-07-17T14:28:23.724Z,2.20
2017-07-17T14:30:51.796Z,1.73
2017-07-17T14:33:19.934Z,2.07
2017-07-17T14:35:48.762Z,2.50
2017-07-17T14:38:16.837Z,1.87
2017-07-17T14:40:44.907Z,2.20
2017-07-17T14:43:12.992Z,2.30
2017-07-17T14:45:41.066Z,2.00
2017-07-17T14:48:09.129Z,2.10
2017-07-17T14:50:37.200Z,1.87
2017-07-17T14:53:05.251Z,2.33
2017-07-17T14:55:33.332Z,1.90
2017-07-17T14:58:01.389Z,1.83
2017-07-17T15:00:29.442Z,1.67
2017-07-17T15:02:58.306Z,1.80
2017-07-17T15:05:26.375Z,2.33
2017-07-17T15:07:54.439Z,2.10
2017-07-17T15:10:28.737Z,2.00
2017-07-17T15:12:56.783Z,1.80
2017-07-17T15:15:24.875Z,2.37
2017-07-17T15:17:52.944Z,1.90
2017-07-17T15:20:21.000Z,2.00
2017-07-17T15:22:49.073Z,1.77
2017-07-17T15:25:17.152Z,1.77
2017-07-17T15:27:45.241Z,1.70
2017-07-17T15:30:13.288Z,1.60
2017-07-17T15:32:41.379Z,1.70
2017-07-17T15:35:09.438Z,2.00
2017-07-17T15:37:37.499Z,2.20
2017-07-17T15:40:05.588Z,2.00
2017-07-17T15:42:33.644Z,1.87
2017-07-17T15:45:01.720Z,1.80
2017-07-17T15:47:29.806Z,2.47
2017-07-17T15:49:57.870Z,1.93
2017-07-17T15:52:25.939Z,2.40
2017-07-17T15:54:54.032Z,1.60
2017-07-17T15:57:22.077Z,1.97
2017-07-17T15:59:50.142Z,2.17
2017-07-17T16:02:18.200Z,1.90
2017-07-17T16:04:46.266Z,2.00
2017-07-17T16:07:14.645Z,2.00
2017-07-17T16:09:43.438Z,1.90
2017-07-17T16:12:11.510Z,1.83
2017-07-17T16:14:39.602Z,2.00
2017-07-17T16:17:07.654Z,1.70
2017-07-17T16:19:35.743Z,1.97
2017-07-17T16:22:03.801Z,1.70
2017-07-17T16:24:32.361Z,2.07
2017-07-17T16:27:00.410Z,1.63
2017-07-17T16:29:29.279Z,1.90
2017-07-17T16:31:57.340Z,2.07
2017-07-17T16:34:25.401Z,1.80
2017-07-17T16:36:53.474Z,1.40
2017-07-17T16:39:21.539Z,1.90
2017-07-17T16:41:49.624Z,1.40
2017-07-17T16:44:17.683Z,1.50
2017-07-17T16:46:45.755Z,1.77
2017-07-17T16:49:13.820Z,1.73
2017-07-17T16:51:41.910Z,2.00
2017-07-17T16:54:09.991Z,1.90
2017-07-17T16:56:38.063Z,1.93
2017-07-17T16:59:06.140Z,2.03
2017-07-17T17:01:34.273Z,1.33
2017-07-17T17:04:03.838Z,1.67
2017-07-17T17:06:31.886Z,1.53
2017-07-17T17:08:59.970Z,2.00
2017-07-17T17:11:28.034Z,1.57
2017-07-17T17:13:56.095Z,1.70
2017-07-17T17:16:24.179Z,1.70
2017-07-17T17:18:52.278Z,2.10
2017-07-17T17:21:20.332Z,1.60
2017-07-17T17:23:48.410Z,2.03
2017-07-17T17:26:16.480Z,2.10
2017-07-17T17:28:44.571Z,2.13
2017-07-17T17:31:12.655Z,1.90
2017-07-17T17:33:40.730Z,1.67
2017-07-17T17:36:09.605Z,1.63
2017-07-17T17:38:37.651Z,1.50
2017-07-17T17:41:05.699Z,1.77
2017-07-17T17:43:33.780Z,1.50
2017-07-17T17:46:01.852Z,1.90
2017-07-17T17:48:29.909Z,1.73
2017-07-17T17:50:58.023Z,2.10
2017-07-17T17:53:26.103Z,2.73
2017-07-17T17:55:54.914Z,2.20
2017-07-17T17:58:22.987Z,1.90
2017-07-17T18:00:51.053Z,1.70
2017-07-17T18:03:19.143Z,1.90
2017-07-17T18:05:47.199Z,2.00
2017-07-17T18:08:15.259Z,1.70
2017-07-17T18:10:43.331Z,2.30
2017-07-17T18:13:11.443Z,1.90
2017-07-17T18:15:39.517Z,1.87
2017-07-17T18:18:07.561Z,2.20
2017-07-17T18:20:35.661Z,9.10
2017-07-17T18:23:03.733Z,6.23
2017-07-17T18:25:31.783Z,2.40
2017-07-17T18:27:59.864Z,1.90
2017-07-17T18:30:27.936Z,2.20
2017-07-17T18:32:56.503Z,2.13
2017-07-17T18:35:24.562Z,1.80
2017-07-17T18:37:52.622Z,2.30
2017-07-17T18:40:20.708Z,2.50
2017-07-17T18:42:49.132Z,2.47
2017-07-17T18:45:17.177Z,2.57
2017-07-17T18:47:45.257Z,2.60
2017-07-17T18:50:13.330Z,2.13
2017-07-17T18:52:41.420Z,2.20
2017-07-17T18:55:09.899Z,1.90
2017-07-17T18:57:37.987Z,1.67
2017-07-17T19:00:06.804Z,2.07
2017-07-17T19:02:34.871Z,1.77
2017-07-17T19:05:02.964Z,2.10
2017-07-17T19:07:31.007Z,1.80
2017-07-17T19:09:59.081Z,1.63
2017-07-17T19:12:27.160Z,1.83
2017-07-17T19:14:55.218Z,1.80
2017-07-17T19:17:23.280Z,1.83
2017-07-17T19:19:51.368Z,1.90
2017-07-17T19:22:19.468Z,1.93
2017-07-17T19:24:47.589Z,1.90
2017-07-17T19:27:16.418Z,1.83
2017-07-17T19:29:44.471Z,2.13
2017-07-17T19:32:12.556Z,2.00
2017-07-17T19:34:40.630Z,2.07
2017-07-17T19:37:08.708Z,1.60
2017-07-17T19:39:36.776Z,2.13
2017-07-17T19:42:04.870Z,2.03
2017-07-17T19:44:32.928Z,1.93
2017-07-17T19:47:00.994Z,2.07
2017-07-17T19:49:29.286Z,1.63
2017-07-17T19:51:57.347Z,1.57
2017-07-17T19:54:25.437Z,1.93
2017-07-17T19:56:54.290Z,2.07
2017-07-17T19:59:22.367Z,2.10
2017-07-17T20:01:51.209Z,1.93
2017-07-17T20:04:20.084Z,1.73
2017-07-17T20:06:48.130Z,1.87
2017-07-17T20:09:16.192Z,2.00
2017-07-17T20:11:44.264Z,1.77
2017-07-17T20:14:12.347Z,1.60
2017-07-17T20:16:40.421Z,1.90
2017-07-17T20:19:08.508Z,2.07
2017-07-17T20:21:36.598Z,1.83
2017-07-17T20:24:05.451Z,2.13
2017-07-17T20:26:33.521Z,2.33
2017-07-17T20:29:01.579Z,1.70
2017-07-17T20:31:29.831Z,1.30
2017-07-17T20:33:57.916Z,1.50
2017-07-17T20:36:26.037Z,1.40
2017-07-17T20:38:54.090Z,1.97
2017-07-17T20:41:22.167Z,1.60
2017-07-17T20:43:50.256Z,2.27
2017-07-17T20:46:19.100Z,2.07
2017-07-17T20:48:47.167Z,1.83
2017-07-17T20:51:15.240Z,2.20
2017-07-17T20:53:43.301Z,2.07
2017-07-17T20:56:11.356Z,6.17
2017-07-17T20:58:39.432Z,1.50
2017-07-17T21:01:08.294Z,2.17
2017-07-17T21:03:36.369Z,2.33
2017-07-17T21:06:04.450Z,2.47
2017-07-17T21:08:32.519Z,1.90
2017-07-17T21:11:00.571Z,2.13
2017-07-17T21:13:28.634Z,2.90
2017-07-17T21:15:56.707Z,3.20
2017-07-17T21:18:24.770Z,3.10
2017-07-17T21:20:52.829Z,3.37
2017-07-17T21:23:20.907Z,3.03
2017-07-17T21:25:48.992Z,2.60
2017-07-17T21:28:17.064Z,3.00
2017-07-17T21:30:45.119Z,2.10
2017-07-17T21:33:13.201Z,2.73
2017-07-17T21:35:41.266Z,2.30
2017-07-17T21:38:09.321Z,2.10
2017-07-17T21:40:37.393Z,2.23
2017-07-17T21:43:05.445Z,2.33
2017-07-17T21:45:34.276Z,2.00
2017-07-17T21:48:02.365Z,2.80
2017-07-17T21:50:30.433Z,2.63
2017-07-17T21:52:58.487Z,2.80
2017-07-17T21:55:26.555Z,2.50
2017-07-17T21:57:54.608Z,2.80
2017-07-17T22:00:23.428Z,2.90
2017-07-17T22:02:51.506Z,2.50
2017-07-17T22:05:19.599Z,2.67
2017-07-17T22:07:47.664Z,2.90
2017-07-17T22:10:15.708Z,2.40
2017-07-17T22:12:43.799Z,3.10
2017-07-17T22:15:12.487Z,2.87
2017-07-17T22:17:40.538Z,3.03
2017-07-17T22:20:08.618Z,2.87
2017-07-17T22:22:36.681Z,2.90
2017-07-17T22:25:04.752Z,2.80
2017-07-17T22:27:32.839Z,2.83
2017-07-17T22:30:00.915Z,3.00
2017-07-17T22:32:28.963Z,2.77
2017-07-17T22:34:57.031Z,2.80
2017-07-17T22:37:25.110Z,2.90
2017-07-17T22:39:53.944Z,2.90
2017-07-17T22:42:21.991Z,2.50
2017-07-17T22:44:50.054Z,2.70
2017-07-17T22:47:18.224Z,2.70
2017-07-17T22:49:46.239Z,2.80
2017-07-17T22:52:14.306Z,2.73
2017-07-17T22:54:42.372Z,2.67
2017-07-17T22:57:10.462Z,2.97
2017-07-17T22:59:38.503Z,2.50
2017-07-17T23:02:07.323Z,2.63
2017-07-17T23:04:35.441Z,2.87
2017-07-17T23:07:03.483Z,2.70
2017-07-17T23:09:31.546Z,3.03
2017-07-17T23:12:00.539Z,2.30
2017-07-17T23:14:28.592Z,2.80
2017-07-17T23:16:56.667Z,2.80
2017-07-17T23:19:24.730Z,2.63
2017-07-17T23:21:52.792Z,2.53
2017-07-17T23:24:20.862Z,2.77
2017-07-17T23:26:49.671Z,2.50
2017-07-17T23:29:17.752Z,2.90
2017-07-17T23:31:45.810Z,2.77
2017-07-17T23:34:13.883Z,3.00
2017-07-17T23:36:41.952Z,2.60
2017-07-17T23:39:09.991Z,3.17
2017-07-17T23:41:38.822Z,2.93
2017-07-17T23:44:06.873Z,2.80
2017-07-17T23:46:34.935Z,2.57
2017-07-17T23:49:02.987Z,2.90
2017-07-17T23:51:31.902Z,3.40
2017-07-17T23:54:00.701Z,2.83
2017-07-17T23:56:28.759Z,3.00
2017-07-17T23:58:56.833Z,3.23
